createdAt,value
2018-05-11T00:01:27.756Z,13.54
2018-05-11T00:03:56.076Z,13.49
2018-05-11T00:06:24.155Z,13.38
2018-05-11T00:08:52.296Z,13.42
2018-05-11T00:11:21.198Z,13.14
2018-05-11T00:13:50.103Z,13.27
2018-05-11T00:16:18.211Z,13.55
2018-05-11T00:18:46.291Z,13.56
2018-05-11T00:21:15.135Z,13.33
2018-05-11T00:23:43.223Z,13.34
2018-05-11T00:26:11.315Z,13.41
2018-05-11T00:28:39.402Z,13.56
2018-05-11T00:31:09.107Z,13.60
2018-05-11T00:33:37.225Z,13.61
2018-05-11T00:36:05.315Z,13.65
2018-05-11T00:38:33.419Z,13.67
2018-05-11T00:41:01.512Z,13.57
2018-05-11T00:43:29.601Z,13.56
2018-05-11T00:45:58.655Z,13.50
2018-05-11T00:48:31.791Z,13.53
2018-05-11T00:50:59.947Z,13.54
2018-05-11T00:53:28.010Z,13.63
2018-05-11T00:55:56.866Z,13.66
2018-05-11T00:58:24.995Z,13.60
2018-05-11T01:00:53.158Z,13.65
2018-05-11T01:03:22.102Z,13.63
2018-05-11T01:05:50.225Z,13.55
2018-05-11T01:08:18.426Z,13.63
2018-05-11T01:10:47.694Z,13.63
2018-05-11T01:13:15.792Z,13.64
2018-05-11T01:15:43.939Z,13.60
2018-05-11T01:18:13.088Z,13.57
2018-05-11T01:20:41.820Z,13.55
2018-05-11T01:23:09.938Z,13.59
2018-05-11T01:25:38.768Z,13.56
2018-05-11T01:28:06.872Z,13.52
2018-05-11T01:30:36.243Z,13.63
2018-05-11T01:33:04.330Z,13.58
2018-05-11T01:35:32.422Z,13.34
2018-05-11T01:38:01.324Z,13.40
2018-05-11T01:40:29.762Z,13.57
2018-05-11T01:42:58.245Z,13.56
2018-05-11T01:45:26.344Z,13.52
2018-05-11T01:47:54.443Z,13.45
2018-05-11T01:50:22.546Z,13.41
2018-05-11T01:52:50.698Z,13.40
2018-05-11T01:55:19.120Z,13.23
2018-05-11T01:57:47.202Z,13.35
2018-05-11T02:00:15.404Z,13.06
2018-05-11T02:02:44.732Z,13.13
2018-05-11T02:05:12.878Z,13.20
2018-05-11T02:07:41.008Z,13.13
2018-05-11T02:10:15.124Z,13.04
2018-05-11T02:12:43.511Z,12.93
2018-05-11T02:15:11.640Z,12.83
2018-05-11T02:17:39.766Z,12.83
2018-05-11T02:20:08.519Z,12.81
2018-05-11T02:22:37.512Z,12.79
2018-05-11T02:25:06.738Z,12.78
2018-05-11T02:27:35.523Z,12.89
2018-05-11T02:30:04.558Z,12.76
2018-05-11T02:32:32.703Z,12.92
2018-05-11T02:35:01.546Z,12.92
2018-05-11T02:37:29.725Z,12.79
2018-05-11T02:39:58.475Z,12.56
2018-05-11T02:42:27.351Z,12.37
2018-05-11T02:44:55.444Z,12.45
2018-05-11T02:47:23.546Z,12.55
2018-05-11T02:49:57.104Z,12.58
2018-05-11T02:52:25.245Z,12.59
2018-05-11T02:54:53.325Z,12.59
2018-05-11T02:57:21.422Z,12.42
2018-05-11T02:59:50.530Z,12.52
2018-05-11T03:02:19.464Z,12.60
2018-05-11T03:04:53.134Z,12.77
2018-05-11T03:07:21.328Z,12.81
2018-05-11T03:09:50.119Z,12.83
2018-05-11T03:12:18.200Z,12.86
2018-05-11T03:14:46.340Z,12.69
2018-05-11T03:17:14.441Z,12.70
2018-05-11T03:19:42.924Z,12.59
2018-05-11T03:22:11.054Z,12.67
2018-05-11T03:24:39.157Z,12.60
2018-05-11T03:27:07.492Z,12.64
2018-05-11T03:29:35.620Z,12.67
2018-05-11T03:32:03.700Z,12.74
2018-05-11T03:34:31.824Z,12.83
2018-05-11T03:36:59.927Z,12.63
2018-05-11T03:39:28.074Z,12.71
2018-05-11T03:41:56.864Z,12.67
2018-05-11T03:44:24.989Z,12.70
2018-05-11T03:46:53.130Z,12.42
2018-05-11T03:49:21.229Z,12.42
2018-05-11T03:51:49.320Z,12.49
2018-05-11T03:54:17.426Z,12.46
2018-05-11T03:56:46.594Z,12.62
2018-05-11T03:59:14.694Z,12.67
2018-05-11T04:01:54.497Z,12.66
2018-05-11T04:04:34.759Z,12.58
2018-05-11T04:07:14.665Z,12.54
2018-05-11T04:09:42.826Z,12.67
2018-05-11T04:12:10.904Z,12.63
2018-05-11T04:14:39.012Z,12.51
2018-05-11T04:17:07.110Z,12.29
2018-05-11T04:19:35.214Z,12.27
2018-05-11T04:22:03.315Z,12.33
2018-05-11T04:24:31.426Z,12.45
2018-05-11T04:26:59.535Z,12.45
2018-05-11T04:29:28.610Z,12.08
2018-05-11T04:31:57.801Z,12.19
2018-05-11T04:34:25.919Z,12.24
2018-05-11T04:36:54.016Z,12.30
2018-05-11T04:39:27.532Z,12.39
2018-05-11T04:41:56.306Z,12.34
2018-05-11T04:44:24.426Z,12.30
2018-05-11T04:46:53.402Z,12.04
2018-05-11T04:49:21.511Z,12.22
2018-05-11T04:51:49.609Z,12.33
2018-05-11T04:54:17.720Z,12.45
2018-05-11T04:56:45.916Z,12.51
2018-05-11T04:59:14.020Z,12.49
2018-05-11T05:01:42.126Z,12.36
2018-05-11T05:04:10.226Z,12.29
2018-05-11T05:06:38.329Z,12.25
2018-05-11T05:09:06.421Z,12.18
2018-05-11T05:11:34.539Z,12.19
2018-05-11T05:14:02.633Z,11.88
2018-05-11T05:16:30.773Z,12.00
2018-05-11T05:18:58.870Z,12.18
2018-05-11T05:21:27.009Z,12.23
2018-05-11T05:23:56.143Z,12.27
2018-05-11T05:26:24.272Z,12.32
2018-05-11T05:28:52.769Z,12.38
2018-05-11T05:31:20.858Z,12.30
2018-05-11T05:33:49.354Z,12.36
2018-05-11T05:36:17.476Z,12.38
2018-05-11T05:38:46.487Z,12.45
2018-05-11T05:41:14.592Z,12.49
2018-05-11T05:43:42.713Z,12.56
2018-05-11T05:46:11.785Z,12.57
2018-05-11T05:48:40.516Z,12.53
2018-05-11T05:51:08.641Z,12.52
2018-05-11T05:53:36.749Z,12.62
2018-05-11T05:56:04.921Z,12.49
2018-05-11T05:58:33.099Z,12.49
2018-05-11T06:01:01.109Z,12.34
2018-05-11T06:03:29.707Z,12.40
2018-05-11T06:05:57.849Z,12.57
2018-05-11T06:21:26.024Z,12.55
2018-05-11T06:23:54.122Z,12.67
2018-05-11T06:26:22.798Z,12.74
2018-05-11T06:28:50.907Z,12.75
2018-05-11T06:31:19.013Z,12.77
2018-05-11T06:33:47.534Z,12.70
2018-05-11T06:36:15.650Z,12.75
2018-05-11T06:38:43.825Z,12.86
2018-05-11T06:41:11.924Z,12.99
2018-05-11T06:43:40.035Z,13.04
2018-05-11T06:46:08.966Z,13.09
2018-05-11T06:48:37.064Z,13.20
2018-05-11T06:51:05.188Z,13.49
2018-05-11T06:53:33.292Z,13.94
2018-05-11T06:56:01.801Z,14.35
2018-05-11T06:58:30.196Z,14.80
2018-05-11T07:00:58.374Z,15.24
2018-05-11T07:03:26.482Z,15.53
2018-05-11T07:05:54.638Z,15.89
2018-05-11T07:08:23.134Z,16.33
2018-05-11T07:10:51.271Z,16.25
2018-05-11T07:13:19.455Z,16.36
2018-05-11T07:15:47.569Z,16.45
2018-05-11T07:18:15.671Z,16.53
2018-05-11T07:33:43.789Z,18.08
2018-05-11T07:36:11.889Z,18.23
2018-05-11T07:38:39.989Z,18.18
2018-05-11T07:41:08.115Z,17.23
2018-05-11T07:43:36.209Z,17.17
2018-05-11T07:46:04.333Z,16.94
2018-05-11T07:48:32.424Z,16.64
2018-05-11T07:51:00.545Z,16.61
2018-05-11T08:06:29.392Z,16.62
2018-05-11T08:08:57.669Z,16.69
2018-05-11T08:11:25.783Z,16.58
2018-05-11T08:13:53.905Z,16.46
2018-05-11T08:16:22.003Z,16.52
2018-05-11T08:18:50.864Z,16.67
2018-05-11T08:21:19.066Z,16.56
2018-05-11T08:23:47.081Z,16.63
2018-05-11T08:26:16.098Z,16.47
2018-05-11T08:28:44.189Z,16.36
2018-05-11T08:31:12.932Z,16.40
2018-05-11T08:33:41.042Z,16.34
2018-05-11T08:36:09.621Z,16.21
2018-05-11T08:38:38.085Z,16.28
2018-05-11T08:41:06.325Z,16.44
2018-05-11T08:43:34.391Z,16.57
2018-05-11T08:46:02.544Z,16.62
2018-05-11T08:48:30.655Z,16.55
2018-05-11T08:50:58.762Z,16.20
2018-05-11T08:53:27.034Z,15.88
2018-05-11T08:55:55.262Z,15.93
2018-05-11T08:58:23.586Z,15.99
2018-05-11T09:00:51.701Z,16.03
2018-05-11T09:03:19.821Z,16.01
2018-05-11T09:05:47.909Z,16.10
2018-05-11T09:08:16.094Z,15.95
2018-05-11T09:10:44.157Z,16.02
2018-05-11T09:13:12.313Z,16.00
2018-05-11T09:15:40.410Z,15.94
2018-05-11T09:18:08.989Z,15.99
2018-05-11T09:20:37.118Z,15.80
2018-05-11T09:23:05.302Z,15.69
2018-05-11T09:25:33.378Z,15.97
2018-05-11T09:28:01.502Z,16.15
2018-05-11T09:30:29.615Z,15.95
2018-05-11T09:32:58.198Z,16.09
2018-05-11T09:35:26.316Z,16.07
2018-05-11T09:37:54.928Z,15.99
2018-05-11T09:40:23.033Z,16.10
2018-05-11T09:42:51.150Z,16.17
2018-05-11T09:45:19.256Z,16.16
2018-05-11T09:47:48.160Z,16.19
2018-05-11T09:50:16.954Z,16.22
2018-05-11T09:52:45.105Z,16.25
2018-05-11T09:55:13.257Z,16.28
2018-05-11T09:57:46.995Z,16.36
2018-05-11T10:00:26.481Z,16.29
2018-05-11T10:02:54.686Z,16.21
2018-05-11T10:05:22.797Z,16.21
2018-05-11T10:07:51.056Z,16.14
2018-05-11T10:10:19.915Z,16.24
2018-05-11T10:12:48.457Z,16.36
2018-05-11T10:15:16.885Z,16.30
2018-05-11T10:17:45.019Z,16.23
2018-05-11T10:20:13.117Z,16.14
2018-05-11T10:22:41.236Z,16.19
2018-05-11T10:25:09.334Z,16.12
2018-05-11T10:27:43.088Z,16.21
2018-05-11T10:30:16.749Z,16.35
2018-05-11T10:32:44.854Z,16.37
2018-05-11T10:35:13.223Z,16.28
2018-05-11T10:37:41.372Z,16.20
2018-05-11T10:40:09.489Z,16.23
2018-05-11T10:42:37.579Z,16.32
2018-05-11T10:45:05.694Z,16.43
2018-05-11T10:47:33.829Z,16.38
2018-05-11T10:50:01.960Z,16.41
2018-05-11T10:52:31.064Z,16.53
2018-05-11T10:54:59.169Z,16.62
2018-05-11T10:57:27.285Z,16.65
2018-05-11T10:59:55.386Z,16.42
2018-05-11T11:02:23.527Z,16.46
2018-05-11T11:04:51.596Z,16.47
2018-05-11T11:07:19.732Z,16.42
2018-05-11T11:22:47.894Z,16.49
2018-05-11T11:25:16.836Z,16.46
2018-05-11T11:27:44.930Z,16.50
2018-05-11T11:30:13.374Z,16.60
2018-05-11T11:32:41.493Z,16.62
2018-05-11T11:35:09.727Z,16.75
2018-05-11T11:37:37.823Z,16.74
2018-05-11T11:40:05.987Z,16.76
2018-05-11T11:42:34.117Z,16.72
2018-05-11T11:45:02.551Z,16.88
2018-05-11T11:47:31.282Z,16.92
2018-05-11T11:49:59.364Z,16.86
2018-05-11T11:52:27.466Z,16.83
2018-05-11T11:54:55.585Z,16.91
2018-05-11T11:57:23.693Z,16.99
2018-05-11T11:59:51.869Z,17.06
2018-05-11T12:02:19.970Z,17.02
2018-05-11T12:04:48.061Z,17.02
2018-05-11T12:07:16.164Z,16.98
2018-05-11T12:09:44.385Z,16.96
2018-05-11T12:12:12.503Z,16.96
2018-05-11T12:14:40.779Z,17.12
2018-05-11T12:17:08.880Z,17.12
2018-05-11T12:19:36.994Z,17.10
2018-05-11T12:22:05.158Z,17.04
2018-05-11T12:24:33.270Z,17.02
2018-05-11T12:27:01.366Z,16.96
2018-05-11T12:29:30.645Z,17.03
2018-05-11T12:31:58.757Z,17.16
2018-05-11T12:34:26.861Z,17.22
2018-05-11T12:36:54.989Z,17.29
2018-05-11T12:39:23.093Z,17.23
2018-05-11T12:41:51.926Z,17.25
2018-05-11T12:44:20.058Z,17.35
2018-05-11T12:46:48.165Z,17.39
2018-05-11T12:49:21.666Z,17.53
2018-05-11T12:51:50.384Z,17.62
2018-05-11T12:54:18.507Z,17.61
2018-05-11T12:56:47.177Z,17.63
2018-05-11T12:59:15.285Z,17.45
2018-05-11T13:01:43.401Z,17.41
2018-05-11T13:04:11.609Z,17.43
2018-05-11T13:06:39.693Z,17.53
2018-05-11T13:09:07.786Z,17.61
2018-05-11T13:11:35.878Z,17.65
2018-05-11T13:14:04.006Z,17.76
2018-05-11T13:16:32.107Z,17.86
2018-05-11T13:19:00.210Z,17.95
2018-05-11T13:21:33.961Z,17.99
2018-05-11T13:24:02.118Z,17.96
2018-05-11T13:26:30.784Z,17.93
2018-05-11T13:28:58.889Z,17.95
2018-05-11T13:31:27.040Z,17.86
2018-05-11T13:33:55.141Z,17.95
2018-05-11T13:36:23.689Z,18.01
2018-05-11T13:38:51.762Z,18.13
2018-05-11T13:41:20.435Z,18.16
2018-05-11T13:43:48.567Z,18.15
2018-05-11T13:46:16.657Z,18.09
2018-05-11T13:48:44.765Z,18.15
2018-05-11T13:51:13.740Z,18.29
2018-05-11T13:53:41.892Z,18.34
2018-05-11T13:56:10.033Z,18.33
2018-05-11T13:58:38.149Z,18.30
2018-05-11T14:01:06.256Z,18.18
2018-05-11T14:03:34.434Z,18.20
2018-05-11T14:06:02.526Z,18.27
2018-05-11T14:08:30.635Z,18.20
2018-05-11T14:10:58.744Z,18.22
2018-05-11T14:13:26.921Z,18.33
2018-05-11T14:15:55.077Z,18.38
2018-05-11T14:18:23.957Z,18.47
2018-05-11T14:20:52.080Z,18.53
2018-05-11T14:23:20.184Z,18.46
2018-05-11T14:25:48.314Z,18.46
2018-05-11T14:28:16.422Z,18.55
2018-05-11T14:30:44.537Z,18.69
2018-05-11T14:33:12.626Z,18.74
2018-05-11T14:48:40.832Z,18.46
2018-05-11T14:51:09.072Z,18.49
2018-05-11T14:53:37.196Z,18.48
2018-05-11T14:56:05.357Z,18.53
2018-05-11T14:58:33.485Z,18.54
2018-05-11T15:01:01.598Z,18.52
2018-05-11T15:03:29.769Z,18.53
2018-05-11T15:05:57.921Z,18.48
2018-05-11T15:08:26.125Z,18.46
2018-05-11T15:10:55.071Z,18.46
2018-05-11T15:13:23.164Z,18.44
2018-05-11T15:15:51.290Z,18.48
2018-05-11T15:18:19.436Z,18.54
2018-05-11T15:20:47.549Z,18.59
2018-05-11T15:23:16.516Z,18.59
2018-05-11T15:25:45.358Z,18.67
2018-05-11T15:28:13.454Z,18.70
2018-05-11T15:30:41.588Z,18.79
2018-05-11T15:33:09.706Z,18.93
2018-05-11T15:35:37.808Z,19.07
2018-05-11T15:38:05.951Z,19.19
2018-05-11T15:40:34.750Z,19.20
2018-05-11T15:43:02.868Z,19.19
2018-05-11T15:45:30.998Z,19.03
2018-05-11T16:01:00.246Z,18.80
2018-05-11T16:03:28.363Z,18.90
2018-05-11T16:05:56.697Z,18.90
2018-05-11T16:08:25.068Z,18.96
2018-05-11T16:10:53.216Z,19.04
2018-05-11T16:13:21.318Z,19.07
2018-05-11T16:15:51.374Z,19.06
2018-05-11T16:18:20.239Z,19.07
2018-05-11T16:20:48.336Z,19.04
2018-05-11T16:23:16.440Z,19.05
2018-05-11T16:25:44.595Z,19.06
2018-05-11T16:28:12.904Z,19.06
2018-05-11T16:30:40.946Z,19.16
2018-05-11T16:33:09.096Z,19.23
2018-05-11T16:35:37.209Z,19.29
2018-05-11T16:38:05.362Z,19.33
2018-05-11T16:40:33.521Z,19.33
2018-05-11T16:43:01.616Z,19.31
2018-05-11T16:45:29.723Z,19.27
2018-05-11T17:00:57.860Z,18.99
2018-05-11T17:03:26.012Z,19.00
2018-05-11T17:05:54.112Z,19.00
2018-05-11T17:08:22.238Z,19.01
2018-05-11T17:10:50.370Z,18.99
2018-05-11T17:13:18.482Z,19.04
2018-05-11T17:15:46.649Z,19.01
2018-05-11T17:18:14.749Z,19.02
2018-05-11T17:20:42.857Z,19.02
2018-05-11T17:23:11.625Z,19.01
2018-05-11T17:25:39.749Z,19.01
2018-05-11T17:28:07.920Z,18.99
2018-05-11T17:30:36.028Z,19.00
2018-05-11T17:33:04.150Z,19.04
2018-05-11T17:35:32.260Z,19.06
2018-05-11T17:38:00.384Z,19.05
2018-05-11T17:40:28.494Z,19.06
2018-05-11T17:42:56.590Z,19.05
2018-05-11T17:45:24.694Z,19.07
2018-05-11T17:47:52.834Z,19.06
2018-05-11T17:50:26.430Z,19.05
2018-05-11T17:52:54.474Z,19.03
2018-05-11T17:55:22.578Z,19.04
2018-05-11T17:57:50.732Z,19.03
2018-05-11T18:00:18.837Z,19.06
2018-05-11T18:02:52.506Z,19.07
2018-05-11T18:05:20.606Z,19.07
2018-05-11T18:07:48.716Z,19.06
2018-05-11T18:10:16.871Z,19.07
2018-05-11T18:12:45.231Z,19.08
2018-05-11T18:15:13.578Z,19.12
2018-05-11T18:17:42.573Z,19.11
2018-05-11T18:20:16.222Z,19.09
2018-05-11T18:22:50.025Z,19.00
2018-05-11T18:25:18.120Z,18.99
2018-05-11T18:27:46.225Z,18.97
2018-05-11T18:39:59.341Z,18.81
2018-05-11T18:42:33.057Z,18.85
2018-05-11T18:45:01.241Z,18.86
2018-05-11T18:47:29.335Z,18.85
2018-05-11T18:49:57.479Z,18.82
2018-05-11T18:52:25.593Z,18.82
2018-05-11T18:54:53.772Z,18.78
2018-05-11T18:57:21.932Z,18.73
2018-05-11T18:59:50.047Z,18.66
2018-05-11T19:02:18.218Z,18.60
2018-05-11T19:04:46.352Z,18.57
2018-05-11T19:07:14.452Z,18.51
2018-05-11T19:09:42.572Z,18.52
2018-05-11T19:12:10.986Z,18.53
2018-05-11T19:14:39.178Z,18.52
2018-05-11T19:17:07.279Z,18.46
2018-05-11T19:19:35.412Z,18.42
2018-05-11T19:22:03.554Z,18.40
2018-05-11T19:24:31.678Z,18.33
2018-05-11T19:26:59.850Z,18.32
2018-05-11T19:29:27.957Z,18.32
2018-05-11T19:31:56.078Z,18.30
2018-05-11T19:34:24.181Z,18.25
2018-05-11T19:36:52.298Z,18.23
2018-05-11T19:39:20.408Z,18.26
2018-05-11T19:41:48.523Z,18.24
2018-05-11T19:44:16.645Z,18.24
2018-05-11T19:46:44.771Z,18.23
2018-05-11T19:49:13.182Z,18.23
2018-05-11T19:51:41.281Z,18.20
2018-05-11T19:54:09.410Z,18.14
2018-05-11T19:56:38.247Z,18.18
2018-05-11T19:59:06.355Z,18.18
2018-05-11T20:01:34.725Z,18.15
2018-05-11T20:04:02.839Z,18.13
2018-05-11T20:06:30.985Z,18.15
2018-05-11T20:08:59.621Z,18.14
2018-05-11T20:11:27.724Z,18.12
2018-05-11T20:13:55.816Z,18.06
2018-05-11T20:16:23.941Z,18.06
2018-05-11T20:18:52.736Z,18.08
2018-05-11T20:21:20.841Z,18.05
2018-05-11T20:23:48.956Z,18.02
2018-05-11T20:26:17.545Z,18.00
2018-05-11T20:28:47.371Z,17.99
2018-05-11T20:31:16.321Z,18.01
2018-05-11T20:33:44.857Z,18.00
2018-05-11T20:36:12.968Z,18.03
2018-05-11T20:38:41.064Z,18.01
2018-05-11T20:41:09.173Z,17.99
2018-05-11T20:43:37.295Z,17.97
2018-05-11T20:46:05.389Z,17.91
2018-05-11T20:48:33.489Z,17.90
2018-05-11T20:51:02.098Z,17.89
2018-05-11T20:53:30.237Z,17.88
2018-05-11T20:55:58.317Z,17.86
2018-05-11T20:58:26.422Z,17.82
2018-05-11T21:00:54.553Z,17.81
2018-05-11T21:03:22.663Z,17.79
2018-05-11T21:05:50.765Z,17.73
2018-05-11T21:08:18.921Z,17.76
2018-05-11T21:10:47.112Z,17.74
2018-05-11T21:13:15.253Z,17.72
2018-05-11T21:15:43.801Z,17.73
2018-05-11T21:18:11.948Z,17.69
2018-05-11T21:20:40.057Z,17.68
2018-05-11T21:23:13.137Z,17.67
2018-05-11T21:25:41.233Z,17.61
2018-05-11T21:28:10.203Z,17.59
2018-05-11T21:30:38.321Z,17.58
2018-05-11T21:33:06.413Z,17.55
2018-05-11T21:35:34.533Z,17.51
2018-05-11T21:38:02.637Z,17.51
2018-05-11T21:40:30.744Z,17.47
2018-05-11T21:42:58.860Z,17.48
2018-05-11T21:45:26.982Z,17.46
2018-05-11T21:47:55.088Z,17.46
2018-05-11T21:50:24.155Z,17.43
2018-05-11T21:52:57.701Z,17.41
2018-05-11T21:55:31.493Z,17.41
2018-05-11T21:57:59.592Z,17.42
2018-05-11T22:00:27.693Z,17.41
2018-05-11T22:02:56.133Z,17.36
2018-05-11T22:05:24.265Z,17.31
2018-05-11T22:07:53.319Z,17.33
2018-05-11T22:10:21.437Z,17.33
2018-05-11T22:12:49.936Z,17.35
2018-05-11T22:15:18.088Z,17.37
2018-05-11T22:17:46.221Z,17.36
2018-05-11T22:20:14.351Z,17.40
2018-05-11T22:22:43.433Z,17.32
2018-05-11T22:25:11.540Z,17.35
2018-05-11T22:27:39.632Z,17.31
2018-05-11T22:30:07.751Z,17.35
2018-05-11T22:32:36.600Z,17.32
2018-05-11T22:35:04.705Z,17.34
2018-05-11T22:37:33.704Z,17.29
2018-05-11T22:40:02.615Z,17.22
2018-05-11T22:42:30.748Z,17.20
2018-05-11T22:44:58.871Z,17.19
2018-05-11T22:47:26.968Z,17.09
2018-05-11T23:02:55.818Z,16.99
2018-05-11T23:05:24.844Z,17.02
2018-05-11T23:07:53.401Z,17.02
2018-05-11T23:10:21.526Z,16.97
2018-05-11T23:12:49.637Z,17.01
2018-05-11T23:15:17.751Z,16.90
2018-05-11T23:17:45.876Z,16.93
2018-05-11T23:20:14.057Z,16.92
2018-05-11T23:22:42.147Z,16.91
2018-05-11T23:25:10.239Z,16.90
2018-05-11T23:27:38.351Z,16.89
2018-05-11T23:30:06.473Z,16.88
2018-05-11T23:32:35.261Z,16.92
2018-05-11T23:35:03.380Z,16.93
2018-05-11T23:37:31.531Z,16.98
2018-05-11T23:40:05.130Z,17.03
2018-05-11T23:42:33.237Z,17.00
2018-05-11T23:45:01.361Z,17.02
2018-05-11T23:47:29.463Z,17.01
2018-05-11T23:49:57.903Z,17.00
2018-05-11T23:52:26.037Z,16.95
2018-05-11T23:54:54.377Z,16.95
2018-05-11T23:57:22.464Z,16.90
2018-05-11T23:59:50.570Z,16.86
